Time;durP1;ratioP1;P1;durP2;ratioP2;P2;SDS_P1;SDS_P2;PMS_P1;PMS_P2;Temp;Humidity;BMP_temperature;BMP_pressure;BME280_temperature;BME280_humidity;BME280_pressure;Samples;Min_cycle;Max_cycle;Signal;HPM_P1;HPM_P2
2024/01/30 00:00:01;;;;;;;40.53;25.95;;;;;;;;;;4985252;28;20350;-65
2024/01/30 00:02:27;;;;;;;39.03;25.63;;;;;;;;;;4987511;28;20061;-65
2024/01/30 00:04:54;;;;;;;42.50;26.55;;;;;;;;;;4976875;28;20753;-65
2024/01/30 00:07:20;;;;;;;48.25;27.27;;;;;;;;;;4981012;28;20042;-65
2024/01/30 00:09:48;;;;;;;44.60;27.95;;;;;;;;;;4985187;28;20556;-65
2024/01/30 00:12:14;;;;;;;41.05;26.88;;;;;;;;;;4990049;28;20046;-65
2024/01/30 00:14:43;;;;;;;43.08;28.20;;;;;;;;;;4986821;28;20061;-65
2024/01/30 00:17:09;;;;;;;44.08;27.83;;;;;;;;;;4978887;28;20049;-65
2024/01/30 00:19:35;;;;;;;46.97;28.17;;;;;;;;;;4976552;28;20069;-65
2024/01/30 00:22:01;;;;;;;51.78;30.38;;;;;;;;;;4963667;28;20054;-65
2024/01/30 00:24:28;;;;;;;48.30;29.00;;;;;;;;;;4988601;28;20438;-65
2024/01/30 00:26:54;;;;;;;48.65;29.15;;;;;;;;;;4989497;28;20034;-65
2024/01/30 00:29:22;;;;;;;49.00;29.45;;;;;;;;;;4986283;28;20100;-65
2024/01/30 00:31:48;;;;;;;46.17;28.35;;;;;;;;;;4986363;28;20047;-65
2024/01/30 00:34:14;;;;;;;45.53;29.90;;;;;;;;;;4985560;28;20080;-65
2024/01/30 00:36:40;;;;;;;44.63;27.33;;;;;;;;;;4988836;28;20119;-65
2024/01/30 00:39:08;;;;;;;45.00;29.08;;;;;;;;;;4979046;28;20558;-65
2024/01/30 00:41:35;;;;;;;49.60;28.70;;;;;;;;;;4970582;28;20054;-65
2024/01/30 00:44:01;;;;;;;46.83;28.85;;;;;;;;;;4982323;28;20061;-65
2024/01/30 00:46:27;;;;;;;44.63;29.60;;;;;;;;;;4985687;28;20038;-65
2024/01/30 00:48:53;;;;;;;43.22;29.45;;;;;;;;;;4976433;28;20120;-65
2024/01/30 00:51:19;;;;;;;49.75;30.75;;;;;;;;;;4971597;28;20057;-65
2024/01/30 00:53:46;;;;;;;50.55;29.45;;;;;;;;;;4972463;28;20060;-65
2024/01/30 00:56:12;;;;;;;41.85;27.83;;;;;;;;;;4970879;28;20097;-65
2024/01/30 00:58:39;;;;;;;46.55;27.88;;;;;;;;;;4957582;28;20042;-65
2024/01/30 01:01:07;;;;;;;46.55;28.50;;;;;;;;;;4979575;28;20801;-65
2024/01/30 01:03:33;;;;;;;46.28;30.10;;;;;;;;;;4975080;28;20070;-65
2024/01/30 01:05:59;;;;;;;49.78;30.00;;;;;;;;;;4969367;28;20541;-65
2024/01/30 01:08:26;;;;;;;49.47;28.45;;;;;;;;;;4986557;28;20077;-65
2024/01/30 01:10:52;;;;;;;51.20;29.83;;;;;;;;;;4991695;28;20056;-65
2024/01/30 01:13:19;;;;;;;45.83;29.73;;;;;;;;;;4975749;28;20042;-65
2024/01/30 01:15:45;;;;;;;48.22;30.75;;;;;;;;;;4979737;28;20050;-65
2024/01/30 01:18:11;;;;;;;48.05;28.40;;;;;;;;;;4981665;28;20052;-65
2024/01/30 01:20:37;;;;;;;47.72;31.23;;;;;;;;;;4978044;28;20135;-65
2024/01/30 01:23:03;;;;;;;48.63;31.65;;;;;;;;;;4974509;28;20559;-65
2024/01/30 01:25:30;;;;;;;50.70;31.23;;;;;;;;;;4988797;28;20057;-65
2024/01/30 01:27:56;;;;;;;46.78;30.95;;;;;;;;;;4982138;28;20125;-65
2024/01/30 01:30:22;;;;;;;53.50;30.40;;;;;;;;;;4983217;28;20060;-65
2024/01/30 01:32:54;;;;;;;51.00;30.25;;;;;;;;;;4989000;28;20051;-65
2024/01/30 01:35:24;;;;;;;50.72;32.33;;;;;;;;;;4975785;28;20481;-65
2024/01/30 01:37:54;;;;;;;56.13;32.15;;;;;;;;;;4990993;28;20188;-65
2024/01/30 01:40:24;;;;;;;52.72;32.47;;;;;;;;;;4978018;28;20042;-65
2024/01/30 01:42:52;;;;;;;52.58;32.20;;;;;;;;;;4996997;28;20054;-65
2024/01/30 01:45:19;;;;;;;51.08;31.23;;;;;;;;;;4997531;28;20526;-65
2024/01/30 01:47:47;;;;;;;51.95;31.65;;;;;;;;;;4983799;28;20236;-64
2024/01/30 01:50:13;;;;;;;52.58;31.85;;;;;;;;;;4991000;28;20106;-64
2024/01/30 01:52:41;;;;;;;52.03;31.48;;;;;;;;;;4986471;28;20347;-65
2024/01/30 01:55:07;;;;;;;45.92;31.02;;;;;;;;;;4994588;28;20419;-65
2024/01/30 01:57:34;;;;;;;48.10;30.13;;;;;;;;;;4989564;28;20048;-65
2024/01/30 02:00:02;;;;;;;53.88;31.60;;;;;;;;;;5003323;28;20216;-65
2024/01/30 02:02:31;;;;;;;55.35;31.42;;;;;;;;;;4992339;28;21265;-65
2024/01/30 02:04:58;;;;;;;51.33;31.13;;;;;;;;;;4981232;28;20050;-65
2024/01/30 02:07:24;;;;;;;53.67;32.03;;;;;;;;;;4984051;28;20049;-65
2024/01/30 02:09:51;;;;;;;54.80;32.15;;;;;;;;;;4992450;28;20056;-65
2024/01/30 02:12:17;;;;;;;54.80;30.98;;;;;;;;;;4997065;28;20038;-65
2024/01/30 02:14:49;;;;;;;50.55;32.25;;;;;;;;;;4989497;28;20050;-65
2024/01/30 02:17:17;;;;;;;47.60;30.85;;;;;;;;;;4981292;28;20066;-65
2024/01/30 02:19:43;;;;;;;53.92;31.60;;;;;;;;;;4991366;28;20050;-65
2024/01/30 02:22:10;;;;;;;52.72;30.52;;;;;;;;;;4992324;28;20075;-65
2024/01/30 02:24:36;;;;;;;45.85;29.42;;;;;;;;;;4992281;28;20120;-65
2024/01/30 02:27:02;;;;;;;52.50;29.83;;;;;;;;;;4979148;28;20112;-65
2024/01/30 02:29:28;;;;;;;48.97;30.17;;;;;;;;;;4981899;28;20094;-65
2024/01/30 02:31:54;;;;;;;45.33;29.35;;;;;;;;;;4985846;28;20427;-65
2024/01/30 02:34:21;;;;;;;45.97;30.17;;;;;;;;;;4980464;28;20113;-65
2024/01/30 02:36:47;;;;;;;49.03;30.83;;;;;;;;;;4996414;28;20477;-65
2024/01/30 02:39:13;;;;;;;47.17;29.88;;;;;;;;;;4984998;28;20078;-65
2024/01/30 02:41:39;;;;;;;57.42;31.10;;;;;;;;;;4984537;28;20125;-65
2024/01/30 02:44:06;;;;;;;47.05;29.20;;;;;;;;;;4983624;28;20054;-65
2024/01/30 02:46:32;;;;;;;45.97;29.58;;;;;;;;;;4983923;28;20735;-65
2024/01/30 02:48:58;;;;;;;50.65;29.52;;;;;;;;;;4984793;28;20133;-64
2024/01/30 02:51:24;;;;;;;48.55;30.38;;;;;;;;;;4986980;28;20081;-65
2024/01/30 02:53:50;;;;;;;46.80;28.90;;;;;;;;;;4981475;28;20129;-65
2024/01/30 02:56:16;;;;;;;42.83;28.35;;;;;;;;;;4983708;28;20046;-65
2024/01/30 02:58:43;;;;;;;44.40;29.63;;;;;;;;;;5010213;28;20052;-65
2024/01/30 03:01:09;;;;;;;42.33;29.20;;;;;;;;;;4992054;28;20050;-65
2024/01/30 03:03:35;;;;;;;47.17;29.48;;;;;;;;;;5008528;28;20415;-65
2024/01/30 03:06:02;;;;;;;51.08;29.40;;;;;;;;;;5007928;28;20390;-65
2024/01/30 03:08:28;;;;;;;47.90;29.52;;;;;;;;;;5009189;28;20097;-65
2024/01/30 03:10:54;;;;;;;40.70;27.80;;;;;;;;;;4996049;28;20518;-65
2024/01/30 03:13:20;;;;;;;44.78;28.30;;;;;;;;;;4995765;28;20042;-65
2024/01/30 03:15:47;;;;;;;43.03;28.88;;;;;;;;;;4988402;28;20579;-65
2024/01/30 03:18:13;;;;;;;48.92;28.67;;;;;;;;;;4992548;28;20038;-65
2024/01/30 03:20:39;;;;;;;49.20;28.20;;;;;;;;;;4995060;28;20080;-65
2024/01/30 03:23:05;;;;;;;45.50;28.33;;;;;;;;;;4992206;28;20046;-65
2024/01/30 03:25:31;;;;;;;48.10;27.15;;;;;;;;;;4988393;28;20050;-65
2024/01/30 03:27:58;;;;;;;46.10;28.13;;;;;;;;;;4997231;28;20458;-65
2024/01/30 03:30:24;;;;;;;43.63;26.83;;;;;;;;;;5000760;28;20042;-65
2024/01/30 03:32:50;;;;;;;41.47;26.35;;;;;;;;;;4995392;28;20049;-65
2024/01/30 03:35:16;;;;;;;40.83;25.83;;;;;;;;;;5000143;28;20153;-65
2024/01/30 03:37:42;;;;;;;41.83;26.77;;;;;;;;;;5000121;28;20038;-65
2024/01/30 03:40:09;;;;;;;41.45;24.77;;;;;;;;;;4986851;28;20517;-65
2024/01/30 03:42:35;;;;;;;42.92;26.25;;;;;;;;;;5003146;28;20046;-65
2024/01/30 03:45:02;;;;;;;40.75;26.13;;;;;;;;;;4989457;28;20382;-65
2024/01/30 03:47:28;;;;;;;41.55;25.73;;;;;;;;;;4986289;28;20506;-65
2024/01/30 03:49:54;;;;;;;41.78;26.65;;;;;;;;;;4978729;28;20137;-65
2024/01/30 03:52:20;;;;;;;42.42;27.67;;;;;;;;;;4998728;28;20046;-65
2024/01/30 03:54:47;;;;;;;44.92;27.83;;;;;;;;;;5000139;28;20498;-65
2024/01/30 03:57:13;;;;;;;42.65;27.65;;;;;;;;;;4996769;28;20037;-65
2024/01/30 03:59:42;;;;;;;46.03;27.80;;;;;;;;;;4999566;28;20052;-65
2024/01/30 04:02:08;;;;;;;42.53;27.38;;;;;;;;;;4989692;28;20072;-65
2024/01/30 04:04:34;;;;;;;47.78;27.90;;;;;;;;;;4983631;28;20549;-65
2024/01/30 04:07:00;;;;;;;43.35;27.67;;;;;;;;;;4984649;28;20510;-65
2024/01/30 04:09:28;;;;;;;42.72;26.83;;;;;;;;;;4982531;28;20054;-64
2024/01/30 04:11:54;;;;;;;49.75;26.75;;;;;;;;;;4986859;28;20097;-64
2024/01/30 04:14:20;;;;;;;42.80;27.30;;;;;;;;;;4979004;28;20050;-64
2024/01/30 04:16:47;;;;;;;42.65;26.15;;;;;;;;;;4980047;28;20064;-65
2024/01/30 04:19:13;;;;;;;41.72;25.58;;;;;;;;;;4977140;28;20054;-64
2024/01/30 04:21:39;;;;;;;41.60;26.08;;;;;;;;;;4992824;28;20055;-65
2024/01/30 04:24:05;;;;;;;38.13;25.83;;;;;;;;;;4995632;28;20133;-65
2024/01/30 04:26:32;;;;;;;40.30;25.60;;;;;;;;;;4978760;28;20041;-65
2024/01/30 04:28:58;;;;;;;43.97;26.30;;;;;;;;;;4986176;28;20117;-65
2024/01/30 04:31:24;;;;;;;41.00;24.90;;;;;;;;;;4972865;28;20069;-65
2024/01/30 04:33:50;;;;;;;36.55;24.10;;;;;;;;;;4975011;28;20173;-65
2024/01/30 04:36:17;;;;;;;36.28;24.33;;;;;;;;;;4972670;28;20508;-65
2024/01/30 04:38:43;;;;;;;37.75;24.95;;;;;;;;;;4980140;28;20434;-65
2024/01/30 04:41:09;;;;;;;35.85;24.40;;;;;;;;;;4977555;28;20113;-64
2024/01/30 04:43:35;;;;;;;40.28;24.50;;;;;;;;;;4973694;28;20082;-64
2024/01/30 04:46:02;;;;;;;39.08;23.92;;;;;;;;;;4977509;28;20061;-65
2024/01/30 04:48:28;;;;;;;36.58;23.45;;;;;;;;;;4969126;28;20403;-65
2024/01/30 04:50:55;;;;;;;37.22;24.33;;;;;;;;;;4967066;28;20039;-65
2024/01/30 04:53:22;;;;;;;36.47;22.65;;;;;;;;;;4967055;28;20043;-65
2024/01/30 04:55:48;;;;;;;32.78;23.00;;;;;;;;;;4976975;28;20046;-65
2024/01/30 04:58:14;;;;;;;37.85;22.20;;;;;;;;;;4976506;28;20039;-65
2024/01/30 05:00:40;;;;;;;41.08;23.52;;;;;;;;;;4981143;28;20061;-65
2024/01/30 05:03:07;;;;;;;34.55;22.15;;;;;;;;;;4982064;28;20055;-65
2024/01/30 05:05:33;;;;;;;35.70;23.20;;;;;;;;;;4976005;28;20446;-65
2024/01/30 05:07:59;;;;;;;39.55;21.60;;;;;;;;;;4970922;28;20062;-65
2024/01/30 05:10:25;;;;;;;34.47;21.95;;;;;;;;;;4975181;28;20046;-65
2024/01/30 05:12:51;;;;;;;30.73;21.10;;;;;;;;;;4975930;28;20521;-65
2024/01/30 05:15:17;;;;;;;38.30;22.02;;;;;;;;;;4975588;28;20046;-65
2024/01/30 05:17:44;;;;;;;36.03;21.40;;;;;;;;;;4967850;28;20051;-65
2024/01/30 05:20:10;;;;;;;33.15;21.08;;;;;;;;;;4974695;28;20402;-65
2024/01/30 05:22:37;;;;;;;34.30;19.50;;;;;;;;;;4974484;28;20133;-65
2024/01/30 05:25:03;;;;;;;31.08;21.10;;;;;;;;;;4963523;28;20073;-65
2024/01/30 05:27:29;;;;;;;30.42;19.17;;;;;;;;;;4975948;28;20054;-65
2024/01/30 05:29:56;;;;;;;34.13;20.90;;;;;;;;;;4976377;28;20164;-65
2024/01/30 05:32:22;;;;;;;30.05;19.05;;;;;;;;;;4991625;28;20520;-65
2024/01/30 05:34:50;;;;;;;29.65;20.27;;;;;;;;;;4980026;28;20062;-65
2024/01/30 05:37:17;;;;;;;33.25;19.90;;;;;;;;;;4992185;28;20098;-65
2024/01/30 05:39:44;;;;;;;32.65;20.17;;;;;;;;;;4997985;28;20057;-66
2024/01/30 05:42:10;;;;;;;26.52;19.52;;;;;;;;;;4980740;28;20042;-65
2024/01/30 05:44:36;;;;;;;31.83;19.65;;;;;;;;;;4994071;28;20162;-65
2024/01/30 05:47:03;;;;;;;28.90;19.65;;;;;;;;;;4982094;28;20050;-65
2024/01/30 05:49:29;;;;;;;26.27;19.13;;;;;;;;;;4978813;28;20050;-65
2024/01/30 05:51:55;;;;;;;31.42;20.10;;;;;;;;;;4991350;28;20038;-65
2024/01/30 05:54:21;;;;;;;28.67;19.05;;;;;;;;;;4986135;28;20140;-65
2024/01/30 05:56:48;;;;;;;28.92;18.90;;;;;;;;;;4983675;28;20111;-65
2024/01/30 05:59:14;;;;;;;27.30;18.80;;;;;;;;;;4986698;28;20042;-65
2024/01/30 06:01:46;;;;;;;29.02;19.52;;;;;;;;;;4994567;28;20096;-65
2024/01/30 06:04:12;;;;;;;28.67;17.60;;;;;;;;;;4974102;28;20050;-65
2024/01/30 06:06:38;;;;;;;27.08;18.65;;;;;;;;;;4989286;28;20336;-65
2024/01/30 06:09:07;;;;;;;27.65;19.48;;;;;;;;;;4980158;28;20126;-65
2024/01/30 06:11:34;;;;;;;27.05;18.75;;;;;;;;;;4980383;28;20062;-65
2024/01/30 06:14:00;;;;;;;29.58;18.58;;;;;;;;;;4986415;28;20096;-65
2024/01/30 06:16:29;;;;;;;27.70;18.17;;;;;;;;;;4986464;28;20057;-65
2024/01/30 06:18:55;;;;;;;30.73;19.58;;;;;;;;;;4988257;28;20545;-65
2024/01/30 06:21:22;;;;;;;27.77;18.88;;;;;;;;;;4987849;28;20432;-65
2024/01/30 06:23:48;;;;;;;28.63;19.00;;;;;;;;;;4979939;28;20125;-65
2024/01/30 06:26:14;;;;;;;27.60;18.35;;;;;;;;;;4999681;28;20064;-65
2024/01/30 06:28:40;;;;;;;30.48;17.73;;;;;;;;;;4988850;28;20555;-65
2024/01/30 06:31:07;;;;;;;29.13;18.50;;;;;;;;;;5001842;28;20058;-65
2024/01/30 06:33:33;;;;;;;34.33;18.90;;;;;;;;;;5004046;28;20059;-66
2024/01/30 06:36:00;;;;;;;26.88;18.25;;;;;;;;;;4996465;28;20723;-65
2024/01/30 06:38:26;;;;;;;29.75;19.70;;;;;;;;;;4994058;28;20038;-65
2024/01/30 06:40:52;;;;;;;28.35;18.02;;;;;;;;;;5001757;28;20050;-65
2024/01/30 06:43:19;;;;;;;31.73;19.05;;;;;;;;;;4996906;28;20493;-65
2024/01/30 06:45:46;;;;;;;25.42;17.90;;;;;;;;;;5002184;28;20105;-65
2024/01/30 06:48:12;;;;;;;25.48;18.38;;;;;;;;;;4991359;28;20408;-65
2024/01/30 06:50:38;;;;;;;31.10;19.13;;;;;;;;;;4985018;28;20457;-65
2024/01/30 06:53:04;;;;;;;28.42;18.88;;;;;;;;;;4990250;28;20132;-65
2024/01/30 06:55:30;;;;;;;33.17;20.35;;;;;;;;;;4988521;28;20053;-65
2024/01/30 06:57:57;;;;;;;28.58;18.63;;;;;;;;;;5000684;28;20049;-66
2024/01/30 07:00:23;;;;;;;28.77;18.70;;;;;;;;;;4988857;28;20046;-65
2024/01/30 07:02:49;;;;;;;28.17;17.98;;;;;;;;;;4989158;28;20129;-66
2024/01/30 07:05:17;;;;;;;28.70;19.08;;;;;;;;;;4985262;28;20041;-65
2024/01/30 07:07:43;;;;;;;30.02;17.77;;;;;;;;;;4986539;28;20089;-65
2024/01/30 07:10:09;;;;;;;30.35;19.00;;;;;;;;;;4984236;28;20105;-65
2024/01/30 07:12:35;;;;;;;25.55;18.85;;;;;;;;;;4989745;28;20046;-65
2024/01/30 07:15:02;;;;;;;26.42;17.38;;;;;;;;;;4999326;28;20042;-66
2024/01/30 07:17:29;;;;;;;27.88;17.50;;;;;;;;;;5000774;28;20053;-66
2024/01/30 07:19:55;;;;;;;24.77;17.73;;;;;;;;;;4995283;28;20112;-65
2024/01/30 07:22:21;;;;;;;29.77;19.30;;;;;;;;;;4997024;28;20077;-66
2024/01/30 07:24:49;;;;;;;29.60;18.38;;;;;;;;;;4979427;28;20041;-65
2024/01/30 07:27:17;;;;;;;28.42;17.95;;;;;;;;;;4997638;28;20050;-65
2024/01/30 07:29:43;;;;;;;28.48;17.90;;;;;;;;;;4989947;28;20082;-65
2024/01/30 07:32:09;;;;;;;30.75;18.33;;;;;;;;;;4975371;28;20046;-65
2024/01/30 07:34:36;;;;;;;27.58;18.33;;;;;;;;;;4985812;28;20046;-65
2024/01/30 07:37:02;;;;;;;28.08;17.27;;;;;;;;;;4990767;28;20128;-65
2024/01/30 07:39:28;;;;;;;24.52;18.08;;;;;;;;;;4980715;28;20141;-65
2024/01/30 07:41:55;;;;;;;26.40;17.42;;;;;;;;;;4980471;28;20050;-65
2024/01/30 07:44:21;;;;;;;27.20;18.33;;;;;;;;;;4983982;28;20148;-66
2024/01/30 07:46:47;;;;;;;27.92;18.27;;;;;;;;;;4980305;28;20047;-66
2024/01/30 07:49:14;;;;;;;27.77;17.05;;;;;;;;;;4982462;28;20046;-67
2024/01/30 07:51:40;;;;;;;31.23;17.20;;;;;;;;;;4978547;28;20086;-65
2024/01/30 07:54:12;;;;;;;27.10;17.95;;;;;;;;;;4979071;28;20475;-65
2024/01/30 07:56:39;;;;;;;28.10;17.58;;;;;;;;;;4981559;28;20074;-65
2024/01/30 07:59:06;;;;;;;27.92;17.27;;;;;;;;;;4977873;28;20058;-65
2024/01/30 08:01:32;;;;;;;25.85;16.23;;;;;;;;;;4973983;28;20034;-65
2024/01/30 08:03:58;;;;;;;25.42;16.00;;;;;;;;;;4972521;28;20106;-65
2024/01/30 08:06:24;;;;;;;27.20;17.45;;;;;;;;;;4975522;28;20053;-65
2024/01/30 08:08:53;;;;;;;26.55;17.50;;;;;;;;;;4982284;28;20487;-65
2024/01/30 08:11:20;;;;;;;30.55;16.83;;;;;;;;;;4972084;28;20058;-65
2024/01/30 08:13:46;;;;;;;26.42;17.48;;;;;;;;;;4982840;28;20051;-72
2024/01/30 08:16:12;;;;;;;28.15;17.00;;;;;;;;;;4973504;28;20052;-71
2024/01/30 08:18:39;;;;;;;32.80;18.80;;;;;;;;;;4962951;28;20047;-68
2024/01/30 08:21:05;;;;;;;29.92;18.23;;;;;;;;;;4987170;28;20049;-68
2024/01/30 08:23:31;;;;;;;27.13;16.15;;;;;;;;;;4984393;28;20063;-69
2024/01/30 08:25:57;;;;;;;26.33;17.60;;;;;;;;;;4965279;28;20120;-68
2024/01/30 08:28:24;;;;;;;29.85;17.45;;;;;;;;;;4979070;28;20148;-67
2024/01/30 08:30:50;;;;;;;28.20;17.55;;;;;;;;;;4980999;28;20047;-69
2024/01/30 08:33:16;;;;;;;25.73;17.23;;;;;;;;;;5002836;28;20053;-68
2024/01/30 08:35:42;;;;;;;31.17;16.80;;;;;;;;;;4970168;28;20978;-68
2024/01/30 08:38:08;;;;;;;32.25;17.95;;;;;;;;;;4996382;28;20442;-67
2024/01/30 08:40:35;;;;;;;31.60;19.10;;;;;;;;;;4989442;28;20137;-68
2024/01/30 08:43:01;;;;;;;34.63;19.38;;;;;;;;;;5002646;28;20113;-67
2024/01/30 08:45:27;;;;;;;30.52;18.80;;;;;;;;;;4990807;28;20059;-67
2024/01/30 08:47:54;;;;;;;28.83;18.33;;;;;;;;;;4984175;28;20054;-68
2024/01/30 08:50:20;;;;;;;29.73;18.30;;;;;;;;;;5006379;28;20042;-68
2024/01/30 08:52:46;;;;;;;32.75;21.23;;;;;;;;;;4974770;28;20038;-68
2024/01/30 08:55:13;;;;;;;29.30;18.08;;;;;;;;;;5019716;28;20443;-68
2024/01/30 08:57:39;;;;;;;31.80;20.98;;;;;;;;;;4994347;28;20104;-68
2024/01/30 09:00:06;;;;;;;32.50;18.30;;;;;;;;;;4975221;28;20046;-68
2024/01/30 09:02:33;;;;;;;30.30;17.55;;;;;;;;;;5003122;28;20050;-68
2024/01/30 09:04:59;;;;;;;32.03;18.98;;;;;;;;;;5012047;28;20041;-67
2024/01/30 09:07:25;;;;;;;31.80;18.67;;;;;;;;;;4994922;28;20539;-68
2024/01/30 09:09:52;;;;;;;31.40;19.58;;;;;;;;;;5020028;28;20038;-68
2024/01/30 09:12:18;;;;;;;33.97;20.60;;;;;;;;;;4994107;28;20070;-68
2024/01/30 09:14:44;;;;;;;28.50;17.80;;;;;;;;;;5016944;28;20144;-67
2024/01/30 09:17:10;;;;;;;30.20;17.70;;;;;;;;;;4998719;28;20375;-68
2024/01/30 09:19:36;;;;;;;30.80;17.33;;;;;;;;;;4991726;28;20405;-68
2024/01/30 09:22:03;;;;;;;28.13;17.55;;;;;;;;;;5004043;28;20041;-68
2024/01/30 09:24:29;;;;;;;30.25;16.60;;;;;;;;;;4994878;28;20121;-68
2024/01/30 09:26:55;;;;;;;29.27;17.38;;;;;;;;;;4993229;28;20504;-68
2024/01/30 09:29:22;;;;;;;24.40;15.85;;;;;;;;;;4994332;28;20065;-68
2024/01/30 09:31:48;;;;;;;29.08;15.27;;;;;;;;;;5003825;28;20089;-68
2024/01/30 09:34:14;;;;;;;27.65;17.00;;;;;;;;;;4993165;28;20533;-68
2024/01/30 09:36:40;;;;;;;30.45;16.70;;;;;;;;;;4993822;28;20045;-68
2024/01/30 09:39:07;;;;;;;28.15;16.70;;;;;;;;;;4994009;28;20046;-68
2024/01/30 09:41:34;;;;;;;26.83;15.52;;;;;;;;;;4993894;28;20046;-68
2024/01/30 09:44:00;;;;;;;25.92;17.02;;;;;;;;;;5011634;28;20125;-68
2024/01/30 09:46:27;;;;;;;24.67;15.85;;;;;;;;;;5011347;28;20037;-68
2024/01/30 09:48:54;;;;;;;28.67;16.35;;;;;;;;;;4978571;28;20042;-68
2024/01/30 09:51:21;;;;;;;29.85;16.02;;;;;;;;;;4993777;28;20077;-68
2024/01/30 09:53:48;;;;;;;25.27;16.17;;;;;;;;;;5013800;28;20074;-68
2024/01/30 09:56:14;;;;;;;30.58;14.23;;;;;;;;;;4995770;28;20158;-68
2024/01/30 09:58:41;;;;;;;24.63;15.00;;;;;;;;;;5011478;28;20165;-68
2024/01/30 10:01:08;;;;;;;24.15;14.60;;;;;;;;;;5012973;28;20050;-68
2024/01/30 10:03:34;;;;;;;24.58;15.20;;;;;;;;;;5012913;28;20041;-68
2024/01/30 10:06:02;;;;;;;20.35;14.27;;;;;;;;;;4994287;28;20481;-68
2024/01/30 10:08:29;;;;;;;28.48;14.95;;;;;;;;;;5001099;28;20046;-68
2024/01/30 10:10:56;;;;;;;28.13;14.75;;;;;;;;;;4996372;28;20048;-68
2024/01/30 10:13:22;;;;;;;25.58;14.98;;;;;;;;;;4996947;28;20505;-68
2024/01/30 10:15:48;;;;;;;24.52;15.02;;;;;;;;;;5019572;28;20077;-68
2024/01/30 10:18:15;;;;;;;26.25;14.98;;;;;;;;;;5003842;28;20048;-68
2024/01/30 10:20:41;;;;;;;27.98;15.85;;;;;;;;;;5014348;28;20486;-68
2024/01/30 10:23:08;;;;;;;29.55;15.93;;;;;;;;;;5005168;28;20049;-68
2024/01/30 10:25:34;;;;;;;27.50;14.65;;;;;;;;;;4996869;28;20251;-68
2024/01/30 10:28:00;;;;;;;21.88;13.45;;;;;;;;;;4982444;28;20050;-68
2024/01/30 10:30:28;;;;;;;22.00;14.13;;;;;;;;;;5003863;28;20447;-68
2024/01/30 10:32:54;;;;;;;20.92;13.40;;;;;;;;;;5014071;28;20144;-67
2024/01/30 10:35:20;;;;;;;24.95;11.25;;;;;;;;;;5003619;28;20153;-68
2024/01/30 10:37:48;;;;;;;20.25;11.05;;;;;;;;;;5001363;28;20033;-68
2024/01/30 10:40:18;;;;;;;22.38;9.63;;;;;;;;;;5024844;28;20061;-68
2024/01/30 10:42:45;;;;;;;20.05;9.57;;;;;;;;;;5025099;28;20042;-68
2024/01/30 10:45:12;;;;;;;19.08;8.77;;;;;;;;;;4995951;28;20046;-68
2024/01/30 10:47:40;;;;;;;26.15;8.70;;;;;;;;;;4996418;28;20040;-68
2024/01/30 10:50:07;;;;;;;24.38;9.07;;;;;;;;;;5025571;28;20050;-68
2024/01/30 10:52:33;;;;;;;26.50;8.85;;;;;;;;;;4995878;28;20401;-68
2024/01/30 10:55:00;;;;;;;16.30;8.45;;;;;;;;;;4999083;28;20493;-68
2024/01/30 10:57:27;;;;;;;15.55;5.72;;;;;;;;;;5005569;28;20050;-68
2024/01/30 10:59:54;;;;;;;14.00;3.90;;;;;;;;;;4995384;28;20388;-68
2024/01/30 11:02:21;;;;;;;13.35;3.45;;;;;;;;;;5003677;28;20586;-68
2024/01/30 11:04:48;;;;;;;8.75;1.95;;;;;;;;;;5001382;28;20069;-68
2024/01/30 11:07:17;;;;;;;12.10;1.70;;;;;;;;;;5013071;28;20452;-68
2024/01/30 11:09:52;;;;;;;11.52;1.95;;;;;;;;;;5014256;28;20041;-68
2024/01/30 11:12:22;;;;;;;7.10;1.52;;;;;;;;;;5011599;28;20125;-68
2024/01/30 11:14:49;;;;;;;8.75;1.60;;;;;;;;;;5013856;28;20037;-68
2024/01/30 11:17:15;;;;;;;8.00;1.58;;;;;;;;;;5014024;28;20050;-68
2024/01/30 11:19:42;;;;;;;8.05;1.58;;;;;;;;;;4994783;28;21374;-68
2024/01/30 11:22:08;;;;;;;4.63;1.50;;;;;;;;;;5018357;28;20457;-68
2024/01/30 11:24:41;;;;;;;7.90;1.15;;;;;;;;;;4996307;28;20085;-68
2024/01/30 11:27:09;;;;;;;6.87;1.37;;;;;;;;;;4995186;28;20418;-68
2024/01/30 11:29:36;;;;;;;7.40;1.35;;;;;;;;;;5018442;28;20414;-68
2024/01/30 11:32:02;;;;;;;5.75;1.20;;;;;;;;;;5023062;28;20053;-68
2024/01/30 11:34:28;;;;;;;7.30;1.95;;;;;;;;;;5015029;28;20394;-68
2024/01/30 11:37:03;;;;;;;8.13;2.00;;;;;;;;;;4997928;28;20085;-68
2024/01/30 11:39:30;;;;;;;7.72;1.88;;;;;;;;;;4991198;28;20119;-67
2024/01/30 11:41:57;;;;;;;8.95;1.88;;;;;;;;;;5000140;28;20044;-68
2024/01/30 11:44:23;;;;;;;10.35;2.33;;;;;;;;;;4985212;28;20086;-67
2024/01/30 11:46:50;;;;;;;13.18;2.50;;;;;;;;;;5001139;28;20038;-67
2024/01/30 11:49:17;;;;;;;9.90;2.30;;;;;;;;;;4983393;28;20132;-67
2024/01/30 11:51:44;;;;;;;15.50;2.80;;;;;;;;;;4988923;28;20042;-67
2024/01/30 11:54:10;;;;;;;10.52;2.30;;;;;;;;;;4992402;28;20414;-67
2024/01/30 11:56:37;;;;;;;8.93;2.30;;;;;;;;;;4991441;28;20132;-67
2024/01/30 11:59:03;;;;;;;9.45;2.60;;;;;;;;;;4988528;28;20096;-67
2024/01/30 12:01:31;;;;;;;7.53;2.10;;;;;;;;;;5005374;28;20106;-67
2024/01/30 12:03:57;;;;;;;14.00;3.15;;;;;;;;;;4986052;28;20356;-69
2024/01/30 12:06:24;;;;;;;11.48;3.08;;;;;;;;;;4988317;28;20386;-67
2024/01/30 12:08:58;;;;;;;10.20;2.20;;;;;;;;;;5003727;28;20057;-69
2024/01/30 12:11:25;;;;;;;12.00;2.38;;;;;;;;;;5007339;28;20052;-67
2024/01/30 12:13:52;;;;;;;7.47;1.55;;;;;;;;;;4969775;28;22105;-67
2024/01/30 12:16:18;;;;;;;13.85;2.30;;;;;;;;;;4987718;28;20118;-67
2024/01/30 12:18:44;;;;;;;8.77;2.65;;;;;;;;;;4986992;28;20088;-67
2024/01/30 12:21:10;;;;;;;10.48;2.42;;;;;;;;;;4994047;28;20050;-67
2024/01/30 12:23:37;;;;;;;15.77;3.13;;;;;;;;;;4989208;28;20068;-67
2024/01/30 12:26:03;;;;;;;5.75;1.85;;;;;;;;;;4978991;28;20045;-67
2024/01/30 12:28:30;;;;;;;9.38;2.25;;;;;;;;;;4996654;28;20042;-67
2024/01/30 12:30:57;;;;;;;7.63;2.50;;;;;;;;;;4977356;28;20066;-67
2024/01/30 12:33:28;;;;;;;8.27;2.70;;;;;;;;;;4998650;28;20056;-67
2024/01/30 12:35:54;;;;;;;9.90;2.55;;;;;;;;;;4983690;28;20331;-67
2024/01/30 12:38:20;;;;;;;10.15;3.17;;;;;;;;;;4984531;28;20080;-67
2024/01/30 12:40:46;;;;;;;7.88;2.47;;;;;;;;;;4983002;28;20111;-67
2024/01/30 12:43:14;;;;;;;12.15;3.20;;;;;;;;;;4992606;28;20042;-67
2024/01/30 12:45:41;;;;;;;8.45;2.58;;;;;;;;;;4980387;28;20176;-67
2024/01/30 12:48:08;;;;;;;16.02;2.92;;;;;;;;;;4990236;28;20120;-67
2024/01/30 12:50:34;;;;;;;10.25;2.78;;;;;;;;;;4991390;28;20177;-67
2024/01/30 12:53:00;;;;;;;7.88;2.67;;;;;;;;;;4971192;28;20552;-67
2024/01/30 12:55:28;;;;;;;7.97;2.25;;;;;;;;;;5000648;28;20121;-67
2024/01/30 12:57:55;;;;;;;6.47;2.67;;;;;;;;;;4984987;28;20514;-67
2024/01/30 13:00:22;;;;;;;8.00;2.50;;;;;;;;;;5004286;28;20037;-67
2024/01/30 13:02:48;;;;;;;7.68;2.47;;;;;;;;;;4982974;28;20426;-67
2024/01/30 13:05:15;;;;;;;8.85;2.40;;;;;;;;;;4995723;28;20096;-67
2024/01/30 13:07:41;;;;;;;11.93;3.05;;;;;;;;;;4994130;28;20061;-67
2024/01/30 13:10:07;;;;;;;7.60;2.50;;;;;;;;;;4995891;28;20209;-67
2024/01/30 13:12:33;;;;;;;9.43;3.88;;;;;;;;;;4992968;28;20371;-67
2024/01/30 13:15:01;;;;;;;8.63;2.80;;;;;;;;;;4986830;28;20042;-67
2024/01/30 13:17:27;;;;;;;9.85;3.80;;;;;;;;;;4979894;28;20057;-67
2024/01/30 13:19:54;;;;;;;13.70;4.15;;;;;;;;;;4976341;28;20124;-67
2024/01/30 13:22:21;;;;;;;11.80;4.85;;;;;;;;;;4982265;28;20081;-67
2024/01/30 13:24:48;;;;;;;12.65;4.72;;;;;;;;;;4994738;28;20046;-67
2024/01/30 13:27:14;;;;;;;13.43;5.13;;;;;;;;;;4987020;28;20512;-67
2024/01/30 13:29:40;;;;;;;12.90;4.78;;;;;;;;;;4977041;28;20369;-67
2024/01/30 13:32:07;;;;;;;8.25;4.97;;;;;;;;;;4968048;28;20525;-67
2024/01/30 13:34:33;;;;;;;12.00;6.05;;;;;;;;;;4986816;28;20053;-67
2024/01/30 13:36:59;;;;;;;12.18;6.13;;;;;;;;;;4998551;28;20054;-66
2024/01/30 13:39:25;;;;;;;13.57;5.88;;;;;;;;;;4988845;28;20060;-67
2024/01/30 13:41:52;;;;;;;13.93;5.20;;;;;;;;;;5014182;28;20038;-67
2024/01/30 13:44:18;;;;;;;13.07;6.22;;;;;;;;;;5010212;28;20046;-67
2024/01/30 13:46:46;;;;;;;14.15;7.40;;;;;;;;;;5017690;28;20046;-67
2024/01/30 13:49:12;;;;;;;12.65;6.90;;;;;;;;;;5006750;28;20042;-67
2024/01/30 13:51:38;;;;;;;13.82;7.43;;;;;;;;;;4998382;28;20053;-67
2024/01/30 13:54:04;;;;;;;15.77;8.32;;;;;;;;;;5001127;28;20093;-67
2024/01/30 13:56:31;;;;;;;16.33;9.00;;;;;;;;;;4997831;28;20049;-67
2024/01/30 13:58:57;;;;;;;16.02;8.52;;;;;;;;;;4994104;28;20394;-67
2024/01/30 14:01:24;;;;;;;19.50;9.68;;;;;;;;;;5000921;28;20119;-67
2024/01/30 14:03:50;;;;;;;17.48;8.63;;;;;;;;;;5001610;28;20045;-67
2024/01/30 14:06:16;;;;;;;20.02;8.57;;;;;;;;;;5000857;28;20056;-67
2024/01/30 14:08:42;;;;;;;23.58;8.73;;;;;;;;;;4995041;28;20046;-67
2024/01/30 14:11:08;;;;;;;16.13;7.97;;;;;;;;;;5013069;28;20068;-67
2024/01/30 14:13:35;;;;;;;17.92;7.80;;;;;;;;;;4990777;28;20184;-66
2024/01/30 14:16:01;;;;;;;15.65;6.60;;;;;;;;;;4984738;28;20464;-67